Time;durP1;ratioP1;P1;durP2;ratioP2;P2;SDS_P1;SDS_P2;PMS_P1;PMS_P2;Temp;Humidity;BMP_temperature;BMP_pressure;BME280_temperature;BME280_humidity;BME280_pressure;Samples;Min_cycle;Max_cycle;Signal;HPM_P1;HPM_P2
2021/11/27 00:00:48;;;;;;;21.52;14.03;;;;;;;9.19;71.01;99257.52;1748358;82;25771;-62
2021/11/27 00:03:16;;;;;;;20.88;14.00;;;;;;;9.14;71.00;99251.34;1736548;82;25803;-62
2021/11/27 00:05:45;;;;;;;21.42;14.95;;;;;;;9.11;71.10;99270.44;1716648;83;27428;-62
2021/11/27 00:08:15;;;;;;;19.95;12.78;;;;;;;9.09;71.11;99265.73;1716231;83;25990;-62
2021/11/27 00:10:46;;;;;;;22.58;15.50;;;;;;;9.05;71.01;99267.91;1716112;83;25738;-62
2021/11/27 00:13:14;;;;;;;18.98;13.20;;;;;;;9.03;71.00;99272.58;1730729;82;25825;-62
2021/11/27 00:15:43;;;;;;;18.90;13.75;;;;;;;9.03;71.03;99270.41;1739435;82;25794;-62
2021/11/27 00:18:12;;;;;;;23.67;13.48;;;;;;;9.02;70.85;99278.13;1739246;82;27437;-62
2021/11/27 00:21:00;;;;;;;24.20;13.88;;;;;;;9.03;70.75;99275.78;1739062;82;25744;-62
2021/11/27 00:23:30;;;;;;;21.20;13.58;;;;;;;9.03;70.60;99273.92;1741326;82;25734;-62
2021/11/27 00:25:59;;;;;;;19.82;13.25;;;;;;;9.02;70.62;99270.90;1749081;82;26415;-62
2021/11/27 00:28:27;;;;;;;19.37;13.15;;;;;;;9.02;70.49;99274.92;1757955;81;25967;-62
2021/11/27 00:30:59;;;;;;;20.62;13.45;;;;;;;9.01;70.41;99283.97;1760077;81;27505;-62
2021/11/27 00:33:27;;;;;;;21.55;14.45;;;;;;;9.01;70.27;99279.12;1728925;81;25819;-62
2021/11/27 00:35:54;;;;;;;21.15;14.23;;;;;;;9.03;70.12;99286.51;1734062;81;25550;-62
2021/11/27 00:38:22;;;;;;;21.15;12.95;;;;;;;9.02;70.00;99283.48;1752283;81;25793;-62
2021/11/27 00:40:50;;;;;;;18.57;13.28;;;;;;;9.00;69.91;99289.02;1752783;81;25776;-62
2021/11/27 00:43:18;;;;;;;20.95;14.65;;;;;;;8.98;69.68;99282.97;1755177;81;28231;-62
2021/11/27 00:45:47;;;;;;;19.05;14.15;;;;;;;8.96;69.55;99278.27;1716376;83;25761;-62
2021/11/27 00:48:17;;;;;;;19.37;13.95;;;;;;;8.96;69.46;99290.34;1689731;84;25738;-62
2021/11/27 00:50:49;;;;;;;22.58;14.40;;;;;;;8.95;69.24;99291.85;1660069;86;25766;-62
2021/11/27 00:53:17;;;;;;;19.27;14.05;;;;;;;8.92;69.30;99286.28;1659600;84;25725;-63
2021/11/27 00:55:45;;;;;;;22.50;13.75;;;;;;;8.89;69.25;99278.06;1660175;86;28205;-63
2021/11/27 00:58:13;;;;;;;20.75;11.90;;;;;;;8.89;69.41;99282.09;1701316;83;25759;-63
2021/11/27 01:00:48;;;;;;;17.48;12.50;;;;;;;8.91;69.53;99277.92;1718460;83;25720;-63
2021/11/27 01:03:20;;;;;;;16.35;11.93;;;;;;;8.91;69.57;99268.54;1697024;83;25834;-62
2021/11/27 01:05:47;;;;;;;17.50;11.60;;;;;;;8.91;69.48;99269.88;1752601;81;25729;-63
2021/11/27 01:08:15;;;;;;;15.58;11.45;;;;;;;8.91;69.23;99265.86;1752921;81;27507;-62
2021/11/27 01:10:52;;;;;;;16.05;11.10;;;;;;;8.93;69.07;99264.69;1731197;81;26437;-63
2021/11/27 01:13:20;;;;;;;19.48;10.68;;;;;;;8.99;68.66;99262.34;1721833;81;25720;-63
2021/11/27 01:15:50;;;;;;;16.23;10.75;;;;;;;9.02;68.30;99260.17;1721637;83;25790;-62
2021/11/27 01:18:18;;;;;;;19.02;10.32;;;;;;;9.05;68.13;99267.91;1721062;83;27262;-62
2021/11/27 01:20:55;;;;;;;16.45;10.38;;;;;;;9.08;67.92;99261.36;1739212;81;27483;-62
2021/11/27 01:23:25;;;;;;;16.27;10.98;;;;;;;9.10;67.76;99255.34;1751729;81;25931;-61
2021/11/27 01:25:53;;;;;;;15.88;9.73;;;;;;;9.10;67.71;99251.31;1751764;81;25528;-62
2021/11/27 01:28:23;;;;;;;18.60;11.25;;;;;;;9.12;67.51;99240.41;1755510;81;25762;-62
2021/11/27 01:30:55;;;;;;;13.58;10.43;;;;;;;9.11;67.42;99246.30;1739657;81;25790;-63
2021/11/27 01:33:23;;;;;;;21.10;11.80;;;;;;;9.11;67.26;99250.31;1728010;83;27510;-62
2021/11/27 01:35:51;;;;;;;16.95;11.50;;;;;;;9.10;67.30;99250.49;1727742;83;25692;-62
2021/11/27 01:38:19;;;;;;;17.25;11.45;;;;;;;9.09;67.13;99259.02;1728090;83;25759;-62
2021/11/27 01:40:47;;;;;;;17.37;10.10;;;;;;;9.08;67.22;99256.86;1727924;83;26451;-62
2021/11/27 01:43:14;;;;;;;16.45;10.45;;;;;;;9.08;66.89;99262.70;1745744;81;25768;-61
2021/11/27 01:45:43;;;;;;;15.35;10.85;;;;;;;9.08;67.03;99258.68;1727914;83;27570;-62
2021/11/27 01:48:14;;;;;;;14.75;10.55;;;;;;;9.10;66.98;99266.59;1727772;83;25837;-62
2021/11/27 01:51:01;;;;;;;16.30;10.58;;;;;;;9.10;66.93;99265.25;1727838;83;25753;-62
2021/11/27 01:53:32;;;;;;;13.05;9.63;;;;;;;9.12;66.83;99268.09;1733530;81;25837;-62
2021/11/27 01:56:04;;;;;;;15.08;9.85;;;;;;;9.13;66.51;99268.44;1733674;81;26563;-62
2021/11/27 01:58:33;;;;;;;17.52;9.98;;;;;;;9.13;66.61;99267.58;1727074;82;27433;-62
2021/11/27 02:01:05;;;;;;;12.58;9.33;;;;;;;9.15;66.38;99270.95;1727744;83;25775;-62
2021/11/27 02:03:32;;;;;;;14.78;9.55;;;;;;;9.18;66.15;99266.61;1724786;82;25744;-62
2021/11/27 02:06:14;;;;;;;13.98;10.90;;;;;;;9.18;66.01;99266.61;1731433;81;25860;-62
2021/11/27 02:08:44;;;;;;;15.45;10.60;;;;;;;9.17;65.92;99265.75;1736396;82;25742;-62
2021/11/27 02:11:14;;;;;;;17.70;11.22;;;;;;;9.15;65.83;99265.58;1717491;82;27458;-62
2021/11/27 02:13:41;;;;;;;15.05;10.45;;;;;;;9.14;65.84;99263.41;1743181;82;25769;-62
2021/11/27 02:16:10;;;;;;;18.17;10.60;;;;;;;9.14;65.76;99263.41;1742971;81;25766;-62
2021/11/27 02:18:38;;;;;;;15.15;10.43;;;;;;;9.15;65.62;99273.62;1749016;81;26336;-62
2021/11/27 02:21:10;;;;;;;14.00;10.15;;;;;;;9.13;65.60;99268.92;1746814;81;25752;-62
2021/11/27 02:23:38;;;;;;;15.63;9.55;;;;;;;9.13;65.63;99268.92;1742911;82;27469;-62
2021/11/27 02:26:09;;;;;;;13.78;10.20;;;;;;;9.11;65.69;99269.09;1743051;82;25640;-61
2021/11/27 02:28:46;;;;;;;13.30;9.28;;;;;;;9.11;65.66;99281.66;1734756;82;25765;-62
2021/11/27 02:31:13;;;;;;;12.43;9.05;;;;;;;9.09;65.53;99276.45;1733433;82;25850;-61
2021/11/27 02:33:41;;;;;;;12.45;9.38;;;;;;;9.05;65.54;99281.31;1754615;81;25760;-62
2021/11/27 02:36:08;;;;;;;12.85;8.53;;;;;;;9.03;65.35;99292.70;1783102;80;27426;-62
2021/11/27 02:38:35;;;;;;;12.25;8.45;;;;;;;9.05;65.44;99289.88;1776632;80;25671;-62
2021/11/27 02:41:03;;;;;;;13.62;8.98;;;;;;;9.07;65.43;99290.53;1759956;81;25730;-61
2021/11/27 02:43:30;;;;;;;11.63;7.97;;;;;;;9.13;65.17;99305.14;1739320;81;25783;-62
2021/11/27 02:45:58;;;;;;;13.65;7.90;;;;;;;9.16;65.13;99306.17;1722125;81;25762;-62
2021/11/27 02:48:25;;;;;;;11.22;8.33;;;;;;;9.18;64.92;99306.84;1748466;81;26919;-62
2021/11/27 02:50:52;;;;;;;13.75;8.58;;;;;;;9.18;64.84;99303.66;1752541;81;25878;-62
2021/11/27 02:53:19;;;;;;;11.90;8.55;;;;;;;9.19;64.90;99295.94;1752198;81;25748;-62
2021/11/27 02:55:47;;;;;;;13.20;8.38;;;;;;;9.20;64.83;99295.42;1752375;81;25811;-62
2021/11/27 02:58:14;;;;;;;13.65;8.53;;;;;;;9.20;64.69;99288.23;1752099;81;25636;-62
2021/11/27 03:00:43;;;;;;;14.85;9.45;;;;;;;9.19;64.66;99295.94;1731201;81;27429;-62
2021/11/27 03:03:12;;;;;;;15.53;9.33;;;;;;;9.16;64.74;99299.45;1762915;80;26195;-62
2021/11/27 03:05:39;;;;;;;13.53;9.85;;;;;;;9.10;64.81;99296.09;1783307;80;25713;-62
2021/11/27 03:08:07;;;;;;;21.07;9.95;;;;;;;9.04;64.84;99290.36;1782995;80;25808;-62
2021/11/27 03:10:34;;;;;;;13.13;9.33;;;;;;;9.00;64.98;99290.36;1733480;80;25858;-62
2021/11/27 03:13:01;;;;;;;12.50;9.38;;;;;;;8.94;65.13;99300.37;1721502;83;28238;-63
2021/11/27 03:15:28;;;;;;;15.30;9.68;;;;;;;8.90;65.06;99305.74;1721792;83;25767;-63
2021/11/27 03:17:56;;;;;;;19.75;10.23;;;;;;;8.87;65.17;99308.73;1721447;83;25900;-63
2021/11/27 03:20:23;;;;;;;13.38;10.08;;;;;;;8.83;65.26;99310.08;1721815;83;25795;-63
2021/11/27 03:22:50;;;;;;;13.93;9.80;;;;;;;8.80;65.29;99315.75;1745820;81;25541;-63
2021/11/27 03:25:17;;;;;;;15.48;9.90;;;;;;;8.74;65.29;99323.42;1751731;81;28193;-63
2021/11/27 03:27:46;;;;;;;14.38;9.93;;;;;;;8.70;65.44;99311.34;1751678;81;25726;-63
2021/11/27 03:30:17;;;;;;;15.83;10.38;;;;;;;8.68;65.39;99311.17;1740015;81;25989;-62
2021/11/27 03:32:46;;;;;;;19.33;10.43;;;;;;;8.65;65.59;99319.02;1721195;80;26311;-63
2021/11/27 03:35:19;;;;;;;13.70;9.13;;;;;;;8.61;65.63;99324.38;1721604;82;25839;-63
2021/11/27 03:37:48;;;;;;;17.00;10.43;;;;;;;8.61;65.82;99321.69;1721685;83;27470;-63
2021/11/27 03:40:18;;;;;;;14.18;10.00;;;;;;;8.64;65.94;99329.42;1733662;81;26152;-63
2021/11/27 03:42:46;;;;;;;17.20;12.13;;;;;;;8.67;66.11;99328.26;1748337;81;25658;-62
2021/11/27 03:45:19;;;;;;;14.47;9.13;;;;;;;8.70;66.11;99329.26;1724013;81;25801;-63
2021/11/27 03:48:04;;;;;;;16.40;9.35;;;;;;;8.68;65.93;99328.09;1722199;81;25837;-62
2021/11/27 03:50:40;;;;;;;12.58;8.43;;;;;;;8.71;66.21;99326.92;1721328;83;28596;-62
2021/11/27 03:53:11;;;;;;;12.25;8.88;;;;;;;8.71;65.98;99323.76;1721595;83;25762;-63
2021/11/27 03:55:39;;;;;;;13.40;8.78;;;;;;;8.71;66.18;99322.42;1744109;81;25801;-63
2021/11/27 03:58:06;;;;;;;12.90;9.88;;;;;;;8.71;65.91;99314.86;1751570;81;26481;-63
2021/11/27 04:00:34;;;;;;;16.25;9.63;;;;;;;8.69;65.87;99305.64;1751626;81;25662;-63
2021/11/27 04:03:02;;;;;;;14.38;9.50;;;;;;;8.68;65.86;99304.47;1760549;80;28153;-63
2021/11/27 04:05:34;;;;;;;14.20;9.40;;;;;;;8.65;65.76;99305.61;1782847;80;25428;-63
2021/11/27 04:08:02;;;;;;;16.30;10.53;;;;;;;8.61;65.75;99312.31;1727584;80;25776;-63
2021/11/27 04:10:29;;;;;;;14.13;10.10;;;;;;;8.59;65.77;99318.31;1721383;82;25806;-64
2021/11/27 04:12:56;;;;;;;17.40;9.95;;;;;;;8.57;65.64;99322.99;1721738;83;25760;-63
2021/11/27 04:15:24;;;;;;;16.35;11.10;;;;;;;8.54;65.59;99324.16;1721511;83;27479;-63
2021/11/27 04:17:51;;;;;;;15.85;10.20;;;;;;;8.49;65.65;99320.27;1722151;81;25838;-63
2021/11/27 04:20:19;;;;;;;14.68;9.90;;;;;;;8.45;65.70;99325.93;1751553;81;25733;-62
2021/11/27 04:22:47;;;;;;;15.70;10.88;;;;;;;8.39;65.52;99327.88;1751918;81;25788;-63
2021/11/27 04:25:15;;;;;;;14.58;10.38;;;;;;;8.25;65.44;99318.58;1751736;81;25717;-63
2021/11/27 04:27:43;;;;;;;16.05;11.18;;;;;;;8.17;65.61;99313.68;1752046;81;27425;-63
2021/11/27 04:30:15;;;;;;;16.95;10.63;;;;;;;8.09;65.76;99323.82;1744834;81;25993;-63
2021/11/27 04:32:44;;;;;;;15.65;11.18;;;;;;;7.98;65.59;99323.06;1737308;81;26150;-62
2021/11/27 04:35:15;;;;;;;17.65;11.28;;;;;;;7.88;65.76;99321.48;1749979;81;25797;-63
2021/11/27 04:37:43;;;;;;;15.88;10.48;;;;;;;7.80;65.93;99324.92;1751992;81;25872;-63
2021/11/27 04:40:14;;;;;;;20.30;12.07;;;;;;;7.67;65.91;99326.17;1751537;81;27476;-63
2021/11/27 04:42:43;;;;;;;17.95;12.18;;;;;;;7.57;66.20;99332.09;1745409;81;25528;-63
2021/11/27 04:45:13;;;;;;;16.90;11.33;;;;;;;7.47;66.60;99338.00;1721604;83;26469;-63
2021/11/27 04:47:43;;;;;;;15.78;10.65;;;;;;;7.31;67.12;99344.87;1721934;81;26771;-63
2021/11/27 04:50:13;;;;;;;16.67;10.90;;;;;;;7.22;67.23;99350.29;1721240;83;25892;-62
2021/11/27 04:52:41;;;;;;;15.28;10.40;;;;;;;7.15;67.39;99350.03;1721428;83;27459;-62
2021/11/27 04:55:10;;;;;;;14.43;10.15;;;;;;;7.13;67.71;99360.03;1743420;81;26006;-65
2021/11/27 04:57:39;;;;;;;15.15;10.58;;;;;;;7.07;67.89;99362.80;1728365;81;25747;-63
2021/11/27 05:00:14;;;;;;;14.70;10.15;;;;;;;7.08;68.14;99379.70;1751801;81;25487;-62
2021/11/27 05:02:42;;;;;;;15.75;10.18;;;;;;;7.10;68.40;99379.04;1747345;81;25511;-62
2021/11/27 05:05:09;;;;;;;17.12;10.23;;;;;;;7.10;68.45;99385.25;1721835;83;27461;-62
2021/11/27 05:07:36;;;;;;;17.50;10.20;;;;;;;7.08;68.42;99380.53;1746375;81;25492;-62
2021/11/27 05:10:05;;;;;;;13.70;9.13;;;;;;;7.04;68.68;99393.84;1751684;81;25756;-62
2021/11/27 05:12:33;;;;;;;13.75;9.45;;;;;;;7.00;68.44;99404.50;1751691;80;25842;-62
2021/11/27 05:15:00;;;;;;;11.68;9.10;;;;;;;6.96;68.96;99400.42;1751799;81;26442;-62
2021/11/27 05:17:27;;;;;;;14.93;9.30;;;;;;;6.81;68.42;99405.42;1724571;81;27484;-62
2021/11/27 05:19:55;;;;;;;13.32;9.73;;;;;;;6.72;68.45;99407.12;1722717;83;26326;-61
2021/11/27 05:22:23;;;;;;;14.70;9.80;;;;;;;6.69;68.64;99404.25;1746890;81;25772;-62
2021/11/27 05:24:51;;;;;;;14.40;9.98;;;;;;;6.69;68.91;99413.60;1721571;83;25823;-62
2021/11/27 05:27:28;;;;;;;17.23;10.80;;;;;;;6.58;68.78;99406.61;1721434;83;25830;-62
2021/11/27 05:29:59;;;;;;;15.13;10.75;;;;;;;6.49;68.52;99397.25;1721124;81;28169;-62
2021/11/27 05:34:56;;;;;;;14.38;10.50;;;;;;;6.37;68.88;99400.08;1736344;81;25711;-62
2021/11/27 05:37:24;;;;;;;17.32;11.25;;;;;;;6.35;68.76;99399.41;1721565;83;26506;-62
2021/11/27 05:39:51;;;;;;;20.90;11.78;;;;;;;6.30;68.73;99406.16;1721706;83;25839;-62
2021/11/27 05:42:19;;;;;;;20.35;12.95;;;;;;;6.24;68.74;99416.91;1721535;83;27525;-62
2021/11/27 05:44:50;;;;;;;24.57;12.55;;;;;;;6.17;68.86;99417.13;1750613;81;25779;-62
2021/11/27 05:47:19;;;;;;;17.48;12.18;;;;;;;6.13;68.97;99403.22;1730870;81;25884;-62
2021/11/27 05:49:49;;;;;;;18.82;12.35;;;;;;;6.10;68.99;99404.83;1756233;81;27833;-62
2021/11/27 05:52:20;;;;;;;17.32;11.57;;;;;;;6.06;69.05;99402.07;1759890;81;25497;-62
2021/11/27 05:54:49;;;;;;;18.40;12.15;;;;;;;6.00;69.45;99391.49;1758643;81;27475;-62
2021/11/27 05:57:16;;;;;;;18.50;12.25;;;;;;;5.99;69.42;99392.91;1751590;81;25787;-61
2021/11/27 05:59:43;;;;;;;16.10;11.35;;;;;;;5.96;69.69;99402.05;1751860;81;25790;-61
2021/11/27 06:02:09;;;;;;;30.35;16.25;;;;;;;5.96;69.69;99397.55;1759042;81;26446;-61
2021/11/27 06:04:36;;;;;;;21.12;12.03;;;;;;;5.96;70.77;99394.88;1768526;80;25945;-61
2021/11/27 06:07:03;;;;;;;23.12;13.15;;;;;;;5.92;70.28;99392.15;1721554;83;27465;-61
2021/11/27 06:09:30;;;;;;;21.77;14.35;;;;;;;5.94;70.44;99394.19;1721145;83;25843;-63
2021/11/27 06:11:57;;;;;;;22.10;15.05;;;;;;;5.97;70.48;99411.75;1721410;83;25742;-61
2021/11/27 06:14:24;;;;;;;22.95;13.28;;;;;;;6.02;70.55;99414.86;1724053;81;25828;-61
2021/11/27 06:16:51;;;;;;;18.27;12.25;;;;;;;6.09;70.56;99409.81;1755533;81;25876;-61
2021/11/27 06:19:18;;;;;;;19.98;12.80;;;;;;;6.18;70.78;99408.97;1751902;81;27805;-62
2021/11/27 06:21:45;;;;;;;17.07;10.58;;;;;;;6.29;70.77;99407.13;1751643;81;25775;-61
2021/11/27 06:24:12;;;;;;;20.25;13.05;;;;;;;6.39;70.78;99421.33;1751759;81;25775;-61
2021/11/27 06:26:39;;;;;;;16.93;12.13;;;;;;;6.48;70.78;99425.81;1752173;81;26459;-61
2021/11/27 06:29:05;;;;;;;24.63;14.47;;;;;;;6.55;70.48;99423.39;1749794;81;25808;-61
2021/11/27 06:31:32;;;;;;;20.70;12.35;;;;;;;6.62;70.45;99425.86;1745868;82;27480;-61
2021/11/27 06:34:01;;;;;;;23.20;13.30;;;;;;;6.70;70.36;99428.66;1716356;83;25738;-61
2021/11/27 06:36:28;;;;;;;19.48;13.00;;;;;;;6.80;70.39;99427.28;1738037;82;25924;-61
2021/11/27 06:38:55;;;;;;;25.27;14.78;;;;;;;6.89;70.28;99417.05;1739071;82;25998;-61
2021/11/27 06:41:23;;;;;;;21.00;14.18;;;;;;;6.98;70.15;99429.20;1736383;82;25783;-62
2021/11/27 06:44:07;;;;;;;27.87;17.02;;;;;;;7.08;70.00;99431.34;1715743;82;27496;-62
2021/11/27 06:46:38;;;;;;;29.90;16.85;;;;;;;7.19;69.96;99436.52;1744777;82;26291;-62
2021/11/27 06:49:05;;;;;;;27.07;19.10;;;;;;;7.32;70.03;99431.30;1746112;82;25817;-62
2021/11/27 06:51:32;;;;;;;30.80;18.23;;;;;;;7.39;69.76;99435.09;1714742;82;26467;-63
2021/11/27 06:53:59;;;;;;;31.90;18.85;;;;;;;7.46;69.58;99441.53;1698599;84;25849;-62
2021/11/27 06:56:26;;;;;;;30.20;17.75;;;;;;;7.55;69.38;99438.44;1699224;84;27453;-62
2021/11/27 06:58:53;;;;;;;29.67;18.90;;;;;;;7.66;69.17;99429.37;1710534;82;25890;-61
2021/11/27 07:01:22;;;;;;;27.98;17.65;;;;;;;7.69;69.57;99423.70;1744093;82;25703;-62
2021/11/27 07:03:53;;;;;;;26.10;17.05;;;;;;;7.74;69.44;99432.14;1706549;82;25834;-62
2021/11/27 07:06:37;;;;;;;30.72;16.42;;;;;;;7.90;69.58;99445.34;1686837;83;25880;-61
2021/11/27 07:09:04;;;;;;;31.97;17.10;;;;;;;8.10;69.64;99448.72;1701354;82;27462;-62
2021/11/27 07:11:50;;;;;;;29.00;17.55;;;;;;;8.24;69.43;99438.82;1678605;84;26191;-62
2021/11/27 07:14:17;;;;;;;31.00;18.70;;;;;;;8.42;69.20;99438.79;1692578;84;25869;-61
2021/11/27 07:16:43;;;;;;;27.77;18.70;;;;;;;8.54;69.14;99430.55;1699093;84;25839;-60
2021/11/27 07:19:11;;;;;;;33.50;18.82;;;;;;;8.68;69.09;99427.28;1698819;84;25855;-62
2021/11/27 07:21:38;;;;;;;30.35;19.32;;;;;;;8.83;68.96;99427.55;1721998;82;27558;-62
2021/11/27 07:24:05;;;;;;;29.25;18.57;;;;;;;8.97;68.77;99422.59;1746005;82;25806;-63
2021/11/27 07:26:32;;;;;;;30.75;17.52;;;;;;;9.11;68.66;99428.72;1745947;82;25784;-62
2021/11/27 07:29:09;;;;;;;28.25;17.15;;;;;;;9.20;68.54;99426.42;1746996;81;25792;-62
2021/11/27 07:31:38;;;;;;;26.40;15.95;;;;;;;9.31;68.41;99423.11;1757342;81;25772;-62
2021/11/27 07:34:05;;;;;;;26.40;15.88;;;;;;;9.36;68.23;99421.64;1735215;81;27478;-62
2021/11/27 07:36:32;;;;;;;28.60;13.32;;;;;;;9.47;68.03;99437.08;1727595;83;26561;-63
2021/11/27 07:38:59;;;;;;;24.80;15.15;;;;;;;9.58;68.05;99439.48;1727295;83;25663;-63
2021/11/27 07:41:27;;;;;;;25.92;15.88;;;;;;;9.69;67.70;99436.50;1727852;83;25762;-63
2021/11/27 07:43:55;;;;;;;24.02;15.03;;;;;;;9.77;67.82;99431.64;1745889;81;25694;-63
2021/11/27 07:46:30;;;;;;;24.70;14.55;;;;;;;9.92;67.31;99443.93;1753503;81;27593;-63
2021/11/27 07:49:15;;;;;;;21.50;14.03;;;;;;;10.01;67.30;99439.43;1757699;81;25925;-62
2021/11/27 07:52:01;;;;;;;27.70;14.93;;;;;;;10.16;67.51;99443.14;1757877;81;25745;-62
2021/11/27 07:54:28;;;;;;;22.82;13.60;;;;;;;10.34;67.22;99445.69;1754714;81;26428;-63
2021/11/27 07:56:56;;;;;;;17.90;12.85;;;;;;;10.48;65.88;99450.08;1757765;81;25839;-63
2021/11/27 07:59:24;;;;;;;26.85;15.65;;;;;;;10.56;64.90;99455.97;1757982;81;28166;-63
2021/11/27 08:01:50;;;;;;;21.30;13.72;;;;;;;10.59;65.13;99453.78;1752106;81;25768;-62
2021/11/27 08:04:18;;;;;;;18.98;12.90;;;;;;;10.67;64.79;99457.47;1752115;81;25529;-61
2021/11/27 08:06:45;;;;;;;19.32;13.38;;;;;;;10.72;65.03;99455.09;1757893;81;25816;-62
2021/11/27 08:09:12;;;;;;;18.95;12.95;;;;;;;10.76;65.07;99451.07;1757810;81;25788;-62
2021/11/27 08:11:40;;;;;;;21.80;13.18;;;;;;;10.87;63.90;99452.07;1758177;81;28171;-63
2021/11/27 08:14:07;;;;;;;23.18;13.70;;;;;;;10.90;63.80;99452.23;1736883;81;25704;-62
2021/11/27 08:16:33;;;;;;;22.40;14.13;;;;;;;10.96;64.43;99448.84;1727584;83;25708;-63
2021/11/27 08:19:00;;;;;;;19.77;13.05;;;;;;;11.00;64.06;99454.23;1727750;83;25819;-63
2021/11/27 08:21:28;;;;;;;28.30;14.90;;;;;;;11.03;64.30;99449.00;1698561;83;25732;-63
2021/11/27 08:23:56;;;;;;;21.07;14.63;;;;;;;11.08;63.43;99447.97;1727676;83;27490;-63
2021/11/27 08:26:23;;;;;;;24.52;14.15;;;;;;;11.03;63.33;99443.63;1752764;81;25825;-62
2021/11/27 08:28:50;;;;;;;20.72;13.93;;;;;;;10.97;63.79;99447.84;1757791;81;25477;-63
2021/11/27 08:31:16;;;;;;;19.15;13.93;;;;;;;10.99;63.13;99445.82;1752934;81;25786;-63
2021/11/27 08:33:43;;;;;;;22.10;14.03;;;;;;;10.93;63.74;99447.86;1723020;81;25696;-62
2021/11/27 08:36:10;;;;;;;22.00;14.95;;;;;;;10.94;63.55;99446.34;1721384;83;28156;-64
2021/11/27 08:38:37;;;;;;;23.38;14.90;;;;;;;10.91;63.44;99450.70;1753966;81;25791;-63
2021/11/27 08:41:07;;;;;;;22.25;14.25;;;;;;;10.95;63.37;99437.74;1760191;81;25755;-62
2021/11/27 08:43:32;;;;;;;24.20;16.05;;;;;;;11.34;62.60;99433.45;1759885;81;26439;-63
2021/11/27 08:45:59;;;;;;;25.40;16.52;;;;;;;11.69;61.75;99441.52;1760007;81;25789;-63
2021/11/27 08:48:26;;;;;;;31.10;15.95;;;;;;;11.57;62.06;99446.47;1723437;81;27478;-64
2021/11/27 08:51:00;;;;;;;20.72;14.00;;;;;;;11.41;61.77;99439.29;1755819;81;25626;-62
2021/11/27 08:53:29;;;;;;;22.45;14.80;;;;;;;11.27;61.57;99433.30;1728346;81;25326;-62
2021/11/27 08:55:56;;;;;;;26.75;15.08;;;;;;;11.19;61.63;99423.39;1759181;81;25787;-63
2021/11/27 08:58:23;;;;;;;21.40;14.10;;;;;;;11.13;62.09;99407.94;1759726;81;25856;-63
2021/11/27 09:00:50;;;;;;;21.90;13.78;;;;;;;11.10;61.83;99405.09;1760320;81;27481;-63
2021/11/27 09:03:17;;;;;;;20.57;14.60;;;;;;;11.07;61.84;99415.38;1743901;81;25745;-62
2021/11/27 09:05:44;;;;;;;25.92;13.28;;;;;;;11.00;62.13;99414.36;1721496;83;25695;-62
2021/11/27 09:08:11;;;;;;;18.80;11.93;;;;;;;11.00;62.28;99429.16;1721342;83;25780;-63
2021/11/27 09:10:40;;;;;;;26.23;14.00;;;;;;;11.01;62.36;99424.11;1721528;83;25799;-62
2021/11/27 09:13:07;;;;;;;28.02;12.53;;;;;;;11.05;62.45;99420.08;1721637;83;27478;-62
2021/11/27 09:15:34;;;;;;;33.23;19.90;;;;;;;11.11;61.73;99422.92;1736740;81;25743;-63
2021/11/27 09:18:02;;;;;;;36.55;18.23;;;;;;;11.12;61.33;99412.47;1751799;81;25756;-63
2021/11/27 09:20:32;;;;;;;29.15;17.60;;;;;;;11.13;61.15;99425.44;1752517;81;25826;-63
2021/11/27 09:23:00;;;;;;;36.58;17.70;;;;;;;11.09;60.97;99426.29;1751097;81;25722;-63
2021/11/27 09:25:29;;;;;;;34.65;18.25;;;;;;;11.04;61.38;99425.95;1731327;81;28235;-62
2021/11/27 09:28:00;;;;;;;42.27;18.67;;;;;;;11.08;61.65;99435.86;1749058;81;25828;-62
2021/11/27 09:30:30;;;;;;;34.40;17.42;;;;;;;11.11;61.56;99426.11;1743296;81;25874;-63
2021/11/27 09:32:58;;;;;;;35.40;18.35;;;;;;;11.14;61.30;99423.08;1730600;82;25763;-62
2021/11/27 09:35:25;;;;;;;35.45;18.00;;;;;;;11.18;61.43;99423.05;1741430;82;25787;-62
2021/11/27 09:37:52;;;;;;;32.15;18.25;;;;;;;11.25;61.48;99433.97;1742853;82;28217;-62
2021/11/27 09:40:21;;;;;;;25.45;16.45;;;;;;;11.30;61.25;99429.41;1742630;82;25672;-62
2021/11/27 09:42:52;;;;;;;27.82;15.18;;;;;;;11.34;61.13;99434.80;1727286;81;25798;-63
2021/11/27 09:45:25;;;;;;;24.45;15.58;;;;;;;11.38;60.84;99430.72;1727259;82;26436;-63
2021/11/27 09:47:59;;;;;;;24.92;15.18;;;;;;;11.35;60.63;99428.37;1735992;82;26286;-62
2021/11/27 09:50:24;;;;;;;27.15;14.20;;;;;;;11.30;60.63;99434.27;1734409;82;28302;-63
2021/11/27 09:52:52;;;;;;;28.70;15.83;;;;;;;11.28;60.36;99428.25;1729486;82;25817;-63
2021/11/27 09:55:20;;;;;;;27.93;16.05;;;;;;;11.18;60.77;99443.23;1709798;82;25719;-62
2021/11/27 09:57:50;;;;;;;24.07;15.20;;;;;;;11.11;60.95;99443.59;1717579;82;25816;-62
2021/11/27 10:00:20;;;;;;;26.48;15.15;;;;;;;11.00;61.19;99457.41;1730256;82;25943;-62
2021/11/27 10:02:53;;;;;;;28.73;16.02;;;;;;;10.93;61.46;99456.76;1736379;82;27523;-63
2021/11/27 10:05:21;;;;;;;22.35;15.28;;;;;;;10.90;61.68;99452.23;1727905;81;25863;-62
2021/11/27 10:07:48;;;;;;;31.50;15.88;;;;;;;10.88;61.89;99451.55;1749093;82;25545;-62
2021/11/27 10:10:28;;;;;;;28.35;16.42;;;;;;;10.89;62.15;99459.44;1748473;82;26454;-67
2021/11/27 10:12:59;;;;;;;29.27;16.37;;;;;;;10.85;62.19;99460.81;1742201;82;25762;-63
2021/11/27 10:15:27;;;;;;;34.83;16.05;;;;;;;10.85;62.45;99451.39;1745858;82;28073;-64
2021/11/27 10:17:55;;;;;;;33.58;19.67;;;;;;;10.87;62.59;99453.91;1738660;82;25863;-61
2021/11/27 10:20:23;;;;;;;36.90;19.10;;;;;;;10.89;62.70;99455.92;1730602;82;25785;-62
2021/11/27 10:22:53;;;;;;;34.55;18.55;;;;;;;10.93;62.79;99455.94;1699451;83;26484;-62
2021/11/27 10:25:27;;;;;;;32.10;17.65;;;;;;;10.99;63.05;99457.93;1719038;82;25777;-62
2021/11/27 10:28:08;;;;;;;36.90;19.30;;;;;;;11.07;62.97;99462.47;1731218;82;27468;-62
2021/11/27 10:30:43;;;;;;;28.50;17.75;;;;;;;11.09;62.75;99462.63;1737105;81;25815;-62
2021/11/27 10:33:11;;;;;;;33.50;17.87;;;;;;;11.14;62.69;99456.73;1722116;82;25792;-63
2021/11/27 10:35:55;;;;;;;46.20;21.90;;;;;;;11.09;62.10;99464.45;1722887;82;27922;-65
2021/11/27 10:38:35;;;;;;;42.00;20.30;;;;;;;11.09;62.21;99467.15;1742795;82;25726;-62
2021/11/27 10:41:01;;;;;;;35.03;17.02;;;;;;;11.10;61.90;99467.48;1729862;82;27482;-61
2021/11/27 10:43:28;;;;;;;34.08;16.93;;;;;;;11.08;61.97;99470.84;1728551;82;25803;-61
2021/11/27 10:45:56;;;;;;;36.68;17.77;;;;;;;11.03;61.88;99459.77;1735528;82;25790;-61
2021/11/27 10:48:24;;;;;;;33.13;17.20;;;;;;;11.03;61.90;99462.46;1738577;82;25783;-62
2021/11/27 10:50:55;;;;;;;27.98;16.90;;;;;;;11.04;61.84;99463.62;1739205;82;25495;-62
2021/11/27 10:53:31;;;;;;;36.28;17.57;;;;;;;11.08;61.85;99462.77;1731071;81;27480;-62
2021/11/27 10:56:09;;;;;;;30.65;16.67;;;;;;;11.08;61.59;99461.42;1739535;82;25764;-62
2021/11/27 10:59:06;;;;;;;37.20;17.45;;;;;;;11.09;60.90;99453.69;1738821;82;25759;-62
2021/11/27 11:02:08;;;;;;;38.00;18.30;;;;;;;10.95;61.39;99458.78;1739055;82;25883;-62
2021/11/27 11:04:39;;;;;;;29.02;17.57;;;;;;;10.92;61.63;99463.15;1712467;82;25734;-62
2021/11/27 11:07:26;;;;;;;32.95;17.27;;;;;;;10.95;61.53;99456.58;1711045;83;27563;-61
2021/11/27 11:10:12;;;;;;;37.73;17.90;;;;;;;10.93;61.66;99458.11;1710918;83;25773;-63
2021/11/27 11:13:08;;;;;;;34.40;17.12;;;;;;;10.98;61.88;99468.88;1730132;82;25562;-62
2021/11/27 11:15:43;;;;;;;33.75;17.98;;;;;;;11.01;61.63;99474.75;1748949;82;25839;-63
2021/11/27 11:18:28;;;;;;;33.08;18.23;;;;;;;10.99;61.77;99476.77;1749440;82;25728;-63
2021/11/27 11:21:03;;;;;;;40.83;18.50;;;;;;;11.01;61.91;99471.20;1748416;81;27559;-62
2021/11/27 11:23:33;;;;;;;36.77;17.60;;;;;;;11.10;61.99;99468.34;1749277;82;25975;-61
2021/11/27 11:26:23;;;;;;;37.13;20.50;;;;;;;11.21;61.70;99469.82;1718966;82;25824;-62
2021/11/27 11:28:59;;;;;;;32.25;19.12;;;;;;;11.28;61.47;99462.73;1716286;82;25797;-62
2021/11/27 11:31:32;;;;;;;45.12;22.27;;;;;;;11.44;61.67;99470.41;1732893;81;25713;-62
2021/11/27 11:34:02;;;;;;;47.78;22.90;;;;;;;11.69;61.26;99469.81;1718709;81;28177;-62
2021/11/27 11:36:29;;;;;;;29.48;17.67;;;;;;;11.93;61.07;99465.82;1730571;81;25759;-62
2021/11/27 11:39:00;;;;;;;34.95;19.23;;;;;;;12.14;60.88;99462.52;1744719;81;25819;-63